sensor_id;sensor_type;location;lat;lon;timestamp;temperature;humidity
45233;DHT22;30969;51.052;17.056;2023-05-09T04:55:14;7.70;67.40
45233;DHT22;30969;51.052;17.056;2023-05-09T05:00:18;7.90;68.20
45233;DHT22;30969;51.052;17.056;2023-05-09T05:05:22;8.50;66.90
45233;DHT22;30969;51.052;17.056;2023-05-09T05:10:28;8.90;64.60
45233;DHT22;30969;51.052;17.056;2023-05-09T05:15:32;9.30;63.00
45233;DHT22;30969;51.052;17.056;2023-05-09T05:20:35;9.50;61.90
45233;DHT22;30969;51.052;17.056;2023-05-09T05:25:40;9.80;61.50
45233;DHT22;30969;51.052;17.056;2023-05-09T05:30:44;10.00;60.60
45233;DHT22;30969;51.052;17.056;2023-05-09T05:35:47;10.10;60.90
45233;DHT22;30969;51.052;17.056;2023-05-09T05:40:52;10.30;60.00
45233;DHT22;30969;51.052;17.056;2023-05-09T05:45:56;10.50;60.10
45233;DHT22;30969;51.052;17.056;2023-05-09T05:50:59;10.70;59.70
45233;DHT22;30969;51.052;17.056;2023-05-09T05:56:05;10.70;60.40
45233;DHT22;30969;51.052;17.056;2023-05-09T06:01:08;10.90;59.60
45233;DHT22;30969;51.052;17.056;2023-05-09T06:06:13;11.00;59.60
45233;DHT22;30969;51.052;17.056;2023-05-09T06:11:18;11.20;59.10
45233;DHT22;30969;51.052;17.056;2023-05-09T06:16:22;11.50;59.50
45233;DHT22;30969;51.052;17.056;2023-05-09T06:21:26;11.70;58.20
45233;DHT22;30969;51.052;17.056;2023-05-09T06:26:30;12.00;57.00
45233;DHT22;30969;51.052;17.056;2023-05-09T06:31:34;12.10;56.30
45233;DHT22;30969;51.052;17.056;2023-05-09T06:36:40;12.20;55.90
45233;DHT22;30969;51.052;17.056;2023-05-09T06:41:45;12.30;55.10
45233;DHT22;30969;51.052;17.056;2023-05-09T06:46:48;12.40;54.90
45233;DHT22;30969;51.052;17.056;2023-05-09T06:51:52;12.50;54.30
45233;DHT22;30969;51.052;17.056;2023-05-09T06:56:57;12.60;53.70
45233;DHT22;30969;51.052;17.056;2023-05-09T07:02:01;12.70;53.20
45233;DHT22;30969;51.052;17.056;2023-05-09T07:07:04;12.80;52.30
45233;DHT22;30969;51.052;17.056;2023-05-09T07:12:10;12.80;52.00
45233;DHT22;30969;51.052;17.056;2023-05-09T07:17:13;12.90;51.90
45233;DHT22;30969;51.052;17.056;2023-05-09T07:22:25;13.00;51.60
45233;DHT22;30969;51.052;17.056;2023-05-09T07:27:34;13.00;51.10
45233;DHT22;30969;51.052;17.056;2023-05-09T07:32:37;13.20;51.20
45233;DHT22;30969;51.052;17.056;2023-05-09T07:37:41;13.30;51.30
45233;DHT22;30969;51.052;17.056;2023-05-09T07:42:46;13.40;50.70
45233;DHT22;30969;51.052;17.056;2023-05-09T07:47:51;13.50;50.00
45233;DHT22;30969;51.052;17.056;2023-05-09T07:52:55;13.60;48.60
45233;DHT22;30969;51.052;17.056;2023-05-09T07:58:00;13.60;48.60
45233;DHT22;30969;51.052;17.056;2023-05-09T08:03:03;13.80;48.80
45233;DHT22;30969;51.052;17.056;2023-05-09T08:08:07;14.00;47.90
45233;DHT22;30969;51.052;17.056;2023-05-09T08:13:12;14.00;46.60
45233;DHT22;30969;51.052;17.056;2023-05-09T08:18:16;14.20;47.00
45233;DHT22;30969;51.052;17.056;2023-05-09T08:23:19;14.20;46.20
45233;DHT22;30969;51.052;17.056;2023-05-09T08:28:24;14.30;46.40
45233;DHT22;30969;51.052;17.056;2023-05-09T08:33:30;14.40;46.20
45233;DHT22;30969;51.052;17.056;2023-05-09T08:38:33;14.50;46.70
45233;DHT22;30969;51.052;17.056;2023-05-09T08:43:40;14.70;46.40
45233;DHT22;30969;51.052;17.056;2023-05-09T08:48:44;14.70;46.20
45233;DHT22;30969;51.052;17.056;2023-05-09T08:53:48;14.90;45.40
45233;DHT22;30969;51.052;17.056;2023-05-09T08:58:54;14.90;45.70
45233;DHT22;30969;51.052;17.056;2023-05-09T09:03:59;15.10;45.80
45233;DHT22;30969;51.052;17.056;2023-05-09T09:09:05;15.20;45.00
45233;DHT22;30969;51.052;17.056;2023-05-09T09:14:12;15.30;44.80
45233;DHT22;30969;51.052;17.056;2023-05-09T09:19:18;15.40;43.90
45233;DHT22;30969;51.052;17.056;2023-05-09T09:24:22;15.50;43.80
45233;DHT22;30969;51.052;17.056;2023-05-09T09:29:27;15.60;42.40
45233;DHT22;30969;51.052;17.056;2023-05-09T09:34:30;15.60;42.70
45233;DHT22;30969;51.052;17.056;2023-05-09T09:39:34;15.80;42.90
45233;DHT22;30969;51.052;17.056;2023-05-09T09:44:39;15.80;42.00
45233;DHT22;30969;51.052;17.056;2023-05-09T09:49:45;16.00;42.20
45233;DHT22;30969;51.052;17.056;2023-05-09T09:54:49;16.10;41.80
45233;DHT22;30969;51.052;17.056;2023-05-09T09:59:58;16.20;42.10
45233;DHT22;30969;51.052;17.056;2023-05-09T10:05:08;16.30;41.50
45233;DHT22;30969;51.052;17.056;2023-05-09T10:10:11;16.30;41.70
45233;DHT22;30969;51.052;17.056;2023-05-09T10:15:17;16.40;41.20
45233;DHT22;30969;51.052;17.056;2023-05-09T10:20:23;16.50;40.20
45233;DHT22;30969;51.052;17.056;2023-05-09T10:25:32;16.60;40.80
45233;DHT22;30969;51.052;17.056;2023-05-09T10:30:47;16.80;39.50
45233;DHT22;30969;51.052;17.056;2023-05-09T10:35:56;16.90;39.00
45233;DHT22;30969;51.052;17.056;2023-05-09T10:41:01;17.10;38.10
45233;DHT22;30969;51.052;17.056;2023-05-09T10:46:07;17.30;38.70
45233;DHT22;30969;51.052;17.056;2023-05-09T10:51:11;17.50;38.60
45233;DHT22;30969;51.052;17.056;2023-05-09T10:56:22;17.60;37.70
45233;DHT22;30969;51.052;17.056;2023-05-09T11:01:32;17.80;37.50
45233;DHT22;30969;51.052;17.056;2023-05-09T11:06:40;17.90;36.70
45233;DHT22;30969;51.052;17.056;2023-05-09T11:11:50;18.00;35.80
45233;DHT22;30969;51.052;17.056;2023-05-09T11:16:59;18.10;35.50
45233;DHT22;30969;51.052;17.056;2023-05-09T11:22:11;18.30;35.80
45233;DHT22;30969;51.052;17.056;2023-05-09T11:27:17;18.40;35.70
45233;DHT22;30969;51.052;17.056;2023-05-09T11:32:27;18.70;34.70
45233;DHT22;30969;51.052;17.056;2023-05-09T11:37:33;18.80;34.20
45233;DHT22;30969;51.052;17.056;2023-05-09T11:42:42;18.90;33.60
45233;DHT22;30969;51.052;17.056;2023-05-09T11:47:48;19.00;33.80
45233;DHT22;30969;51.052;17.056;2023-05-09T11:52:52;19.10;33.20
45233;DHT22;30969;51.052;17.056;2023-05-09T11:57:57;19.10;32.40
45233;DHT22;30969;51.052;17.056;2023-05-09T12:03:04;19.00;31.80
45233;DHT22;30969;51.052;17.056;2023-05-09T12:08:08;19.10;31.80
45233;DHT22;30969;51.052;17.056;2023-05-09T12:13:13;19.20;33.00
45233;DHT22;30969;51.052;17.056;2023-05-09T12:18:18;19.40;32.20
45233;DHT22;30969;51.052;17.056;2023-05-09T12:23:22;19.50;31.40
45233;DHT22;30969;51.052;17.056;2023-05-09T12:28:26;19.60;30.60
45233;DHT22;30969;51.052;17.056;2023-05-09T12:33:31;19.80;30.90
45233;DHT22;30969;51.052;17.056;2023-05-09T12:38:35;20.00;30.40
45233;DHT22;30969;51.052;17.056;2023-05-09T12:43:38;20.20;30.30
45233;DHT22;30969;51.052;17.056;2023-05-09T12:48:43;20.20;29.90
45233;DHT22;30969;51.052;17.056;2023-05-09T12:53:47;20.30;30.00
45233;DHT22;30969;51.052;17.056;2023-05-09T12:58:52;20.40;29.70
45233;DHT22;30969;51.052;17.056;2023-05-09T13:04:01;20.60;30.30
45233;DHT22;30969;51.052;17.056;2023-05-09T13:09:05;20.80;30.00
45233;DHT22;30969;51.052;17.056;2023-05-09T13:14:10;21.00;29.60
45233;DHT22;30969;51.052;17.056;2023-05-09T13:19:16;21.30;29.10
45233;DHT22;30969;51.052;17.056;2023-05-09T13:24:19;21.40;28.70
45233;DHT22;30969;51.052;17.056;2023-05-09T13:29:22;21.60;28.50
45233;DHT22;30969;51.052;17.056;2023-05-09T13:34:28;21.80;28.70
45233;DHT22;30969;51.052;17.056;2023-05-09T13:39:31;22.00;28.60
45233;DHT22;30969;51.052;17.056;2023-05-09T13:44:35;22.10;27.50
45233;DHT22;30969;51.052;17.056;2023-05-09T13:49:39;22.30;27.80
45233;DHT22;30969;51.052;17.056;2023-05-09T13:54:43;22.60;27.50
45233;DHT22;30969;51.052;17.056;2023-05-09T13:59:46;22.90;27.50
45233;DHT22;30969;51.052;17.056;2023-05-09T14:04:51;23.30;27.10
45233;DHT22;30969;51.052;17.056;2023-05-09T14:09:55;23.90;26.70
45233;DHT22;30969;51.052;17.056;2023-05-09T14:15:12;24.70;25.90
45233;DHT22;30969;51.052;17.056;2023-05-09T14:20:17;25.90;24.70
45233;DHT22;30969;51.052;17.056;2023-05-09T14:25:21;28.50;23.00
45233;DHT22;30969;51.052;17.056;2023-05-09T14:30:25;31.60;20.90
45233;DHT22;30969;51.052;17.056;2023-05-09T14:35:30;34.10;19.10
45233;DHT22;30969;51.052;17.056;2023-05-09T14:40:35;35.60;17.10
45233;DHT22;30969;51.052;17.056;2023-05-09T14:45:39;36.60;15.60
45233;DHT22;30969;51.052;17.056;2023-05-09T14:50:44;36.60;15.70
45233;DHT22;30969;51.052;17.056;2023-05-09T14:55:48;37.00;15.70
45233;DHT22;30969;51.052;17.056;2023-05-09T15:00:52;37.20;15.70
45233;DHT22;30969;51.052;17.056;2023-05-09T15:05:57;37.20;15.00
45233;DHT22;30969;51.052;17.056;2023-05-09T15:11:01;37.20;15.10
45233;DHT22;30969;51.052;17.056;2023-05-09T15:16:05;37.00;15.10
45233;DHT22;30969;51.052;17.056;2023-05-09T15:21:10;37.30;15.00
45233;DHT22;30969;51.052;17.056;2023-05-09T15:26:14;37.70;14.40
45233;DHT22;30969;51.052;17.056;2023-05-09T15:31:18;37.70;14.30
45233;DHT22;30969;51.052;17.056;2023-05-09T15:36:24;37.50;14.00
45233;DHT22;30969;51.052;17.056;2023-05-09T15:41:29;37.30;14.50
45233;DHT22;30969;51.052;17.056;2023-05-09T15:46:33;37.60;14.40
45233;DHT22;30969;51.052;17.056;2023-05-09T15:51:38;38.10;14.00
45233;DHT22;30969;51.052;17.056;2023-05-09T15:56:43;38.30;13.40
45233;DHT22;30969;51.052;17.056;2023-05-09T16:01:46;38.40;13.30
45233;DHT22;30969;51.052;17.056;2023-05-09T16:06:52;38.10;12.60
45233;DHT22;30969;51.052;17.056;2023-05-09T16:11:56;37.50;13.30
45233;DHT22;30969;51.052;17.056;2023-05-09T16:17:01;36.90;13.40
45233;DHT22;30969;51.052;17.056;2023-05-09T16:22:07;36.00;13.70
45233;DHT22;30969;51.052;17.056;2023-05-09T16:27:11;35.10;14.40
45233;DHT22;30969;51.052;17.056;2023-05-09T16:32:15;34.40;15.10
45233;DHT22;30969;51.052;17.056;2023-05-09T16:37:20;34.10;15.40
45233;DHT22;30969;51.052;17.056;2023-05-09T16:42:24;33.60;15.80
45233;DHT22;30969;51.052;17.056;2023-05-09T16:47:30;33.00;16.30
45233;DHT22;30969;51.052;17.056;2023-05-09T16:52:35;32.70;16.20
45233;DHT22;30969;51.052;17.056;2023-05-09T16:57:39;32.00;16.40
45233;DHT22;30969;51.052;17.056;2023-05-09T17:02:43;30.80;16.80
45233;DHT22;30969;51.052;17.056;2023-05-09T17:07:48;29.30;17.80
45233;DHT22;30969;51.052;17.056;2023-05-09T17:12:51;27.90;18.70
45233;DHT22;30969;51.052;17.056;2023-05-09T17:17:55;26.80;20.00
45233;DHT22;30969;51.052;17.056;2023-05-09T17:23:01;25.70;21.00
45233;DHT22;30969;51.052;17.056;2023-05-09T17:28:04;24.80;21.80
45233;DHT22;30969;51.052;17.056;2023-05-09T17:33:08;24.10;22.90
45233;DHT22;30969;51.052;17.056;2023-05-09T17:38:13;23.50;23.70
45233;DHT22;30969;51.052;17.056;2023-05-09T17:43:17;23.00;24.50
45233;DHT22;30969;51.052;17.056;2023-05-09T17:48:21;22.50;25.00
45233;DHT22;30969;51.052;17.056;2023-05-09T17:53:26;22.10;25.70
45233;DHT22;30969;51.052;17.056;2023-05-09T17:58:29;21.80;26.10
45233;DHT22;30969;51.052;17.056;2023-05-09T18:03:33;21.50;26.60
45233;DHT22;30969;51.052;17.056;2023-05-09T18:08:38;21.30;27.20
45233;DHT22;30969;51.052;17.056;2023-05-09T18:13:41;21.00;27.10
45233;DHT22;30969;51.052;17.056;2023-05-09T18:18:45;20.80;27.60
45233;DHT22;30969;51.052;17.056;2023-05-09T18:23:50;20.60;28.00
45233;DHT22;30969;51.052;17.056;2023-05-09T18:28:54;20.30;28.20
45233;DHT22;30969;51.052;17.056;2023-05-09T18:33:57;20.10;28.40
45233;DHT22;30969;51.052;17.056;2023-05-09T18:39:02;19.80;28.80
45233;DHT22;30969;51.052;17.056;2023-05-09T18:44:06;19.60;29.20
45233;DHT22;30969;51.052;17.056;2023-05-09T18:49:10;19.50;29.30
45233;DHT22;30969;51.052;17.056;2023-05-09T18:54:16;19.20;29.40
45233;DHT22;30969;51.052;17.056;2023-05-09T18:59:19;19.10;29.70
45233;DHT22;30969;51.052;17.056;2023-05-09T19:04:23;18.90;29.90
45233;DHT22;30969;51.052;17.056;2023-05-09T19:09:28;18.70;30.20
45233;DHT22;30969;51.052;17.056;2023-05-09T19:14:32;18.40;30.70
45233;DHT22;30969;51.052;17.056;2023-05-09T19:19:36;18.40;30.80
45233;DHT22;30969;51.052;17.056;2023-05-09T19:24:41;18.20;31.30
45233;DHT22;30969;51.052;17.056;2023-05-09T19:29:45;18.10;31.30
45233;DHT22;30969;51.052;17.056;2023-05-09T19:34:51;18.00;31.90
45233;DHT22;30969;51.052;17.056;2023-05-09T19:39:56;17.80;31.90
45233;DHT22;30969;51.052;17.056;2023-05-09T19:45:00;17.70;32.60
45233;DHT22;30969;51.052;17.056;2023-05-09T19:50:05;17.60;32.50
45233;DHT22;30969;51.052;17.056;2023-05-09T19:55:11;17.40;32.70
45233;DHT22;30969;51.052;17.056;2023-05-09T20:00:15;17.30;32.80
45233;DHT22;30969;51.052;17.056;2023-05-09T20:05:20;17.20;33.30
45233;DHT22;30969;51.052;17.056;2023-05-09T20:10:45;17.00;33.50
45233;DHT22;30969;51.052;17.056;2023-05-09T20:15:49;16.90;33.70
45233;DHT22;30969;51.052;17.056;2023-05-09T20:20:53;16.80;33.90
45233;DHT22;30969;51.052;17.056;2023-05-09T20:25:59;16.80;34.00
45233;DHT22;30969;51.052;17.056;2023-05-09T20:31:03;16.70;34.10
45233;DHT22;30969;51.052;17.056;2023-05-09T20:36:07;16.70;34.10
45233;DHT22;30969;51.052;17.056;2023-05-09T20:41:13;16.60;34.60
45233;DHT22;30969;51.052;17.056;2023-05-09T20:46:18;16.50;34.60
45233;DHT22;30969;51.052;17.056;2023-05-09T20:51:21;16.40;34.90
45233;DHT22;30969;51.052;17.056;2023-05-09T20:56:26;16.20;35.00
45233;DHT22;30969;51.052;17.056;2023-05-09T21:01:31;16.10;35.50
45233;DHT22;30969;51.052;17.056;2023-05-09T21:06:37;16.10;35.40
45233;DHT22;30969;51.052;17.056;2023-05-09T21:11:42;15.90;35.60
45233;DHT22;30969;51.052;17.056;2023-05-09T21:16:46;15.90;36.00
45233;DHT22;30969;51.052;17.056;2023-05-09T21:21:57;15.80;36.20
45233;DHT22;30969;51.052;17.056;2023-05-09T21:27:03;15.70;36.10
45233;DHT22;30969;51.052;17.056;2023-05-09T21:32:08;15.60;36.60
45233;DHT22;30969;51.052;17.056;2023-05-09T21:37:12;15.50;36.50
45233;DHT22;30969;51.052;17.056;2023-05-09T21:42:18;15.40;36.80
45233;DHT22;30969;51.052;17.056;2023-05-09T21:47:22;15.30;37.00
45233;DHT22;30969;51.052;17.056;2023-05-09T21:52:26;15.30;37.10
45233;DHT22;30969;51.052;17.056;2023-05-09T21:57:31;15.20;37.30
45233;DHT22;30969;51.052;17.056;2023-05-09T22:02:35;15.20;37.20
45233;DHT22;30969;51.052;17.056;2023-05-09T22:07:40;15.00;37.70
45233;DHT22;30969;51.052;17.056;2023-05-09T22:12:45;15.00;37.80
45233;DHT22;30969;51.052;17.056;2023-05-09T22:17:48;14.90;38.20
45233;DHT22;30969;51.052;17.056;2023-05-09T22:22:53;14.90;38.40
45233;DHT22;30969;51.052;17.056;2023-05-09T22:27:59;14.80;38.60
